Flight Track Log - Related Links

Times and Time Zones

All times are in EST time to prevent confusion due to time zone crossing. See the BOE1 flight status page for this flight to view local times or setup timezone preferences in your user account.

Time Position Orientation Groundspeed Altitude Reporting Facility
EST Latitude Longitude Course Direction KTS MPH feet Rate Location/Type
Sun 05:33:51 PM 47.5028 -122.2850 146° Southeast 179 206 1,300  Level Seattle Center
Sun 05:34:58 PM 47.4539 -122.2360 99° East 218 251 3,200 2,126 Climbing Seattle Center
Sun 05:35:58 PM 47.4433 -122.1380 72° East 225 259 5,800 1,835 Climbing Seattle Center
Sun 05:36:59 PM 47.4661 -122.0340 North 226 260 6,900 2,100 Climbing Seattle Center
Sun 05:37:58 PM 47.5411 -122.0250 339° North 187 215 10,000 3,580 Climbing Seattle Center
Sun 05:38:58 PM 47.6072 -122.0620 334° Northwest 204 235 14,000 3,400 Climbing Seattle Center
Sun 05:39:58 PM 47.6850 -122.1180 334° Northwest 250 288 16,800 2,550 Climbing Seattle Center
Sun 05:40:58 PM 47.7528 -122.1670 339° North 263 303 19,100 2,250 Climbing Seattle Center
Sun 05:41:58 PM 47.8267 -122.2100 334° Northwest 279 321 21,300 1,450 Climbing Seattle Center
Sun 05:42:58 PM 47.8986 -122.2630 North 284 327 22,000 350 Climbing Seattle Center
Sun 05:43:58 PM 47.9819 -122.2480 21° North 284 327 22,000  Level Seattle Center
Sun 05:44:58 PM 48.0664 -122.1990 22° Northeast 291 335 22,000  Level Seattle Center
Sun 05:45:58 PM 48.1483 -122.1500 45° Northeast 304 350 22,000  Level Seattle Center
Sun 05:46:58 PM 48.2106 -122.0560 98° East 320 368 22,000  Level Seattle Center
Sun 05:47:58 PM 48.1967 -121.9130 95° East 282 325 22,000  Level Seattle Center
Sun 05:48:58 PM 48.1886 -121.7760 94° East 318 366 22,000  Level Seattle Center
Sun 05:49:58 PM 48.1825 -121.6320 92° East 336 387 22,000 -100 Level Seattle Center
Sun 05:50:58 PM 48.1786 -121.4860 94° East 346 398 21,800  Descending Seattle Center
Sun 05:51:58 PM 48.1722 -121.3400 95° East 351 404 22,000 100 Climbing Seattle Center
Sun 05:52:58 PM 48.1636 -121.1940 93° East 351 404 22,000 -50 Level Seattle Center
Sun 05:53:58 PM 48.1589 -121.0510 93° East 351 404 21,900  Descending Seattle Center
Sun 05:54:59 PM 48.1542 -120.9080 100° East 351 404 22,000 50 Climbing Seattle Center
Sun 05:55:58 PM 48.1367 -120.7610 94° East 351 404 22,000  Level Seattle Center
Sun 05:56:58 PM 48.1294 -120.6150 93° East 351 404 22,000 100 Level Seattle Center
Sun 05:57:58 PM 48.1242 -120.4720 97° East 351 404 22,200 50 Climbing Seattle Center
Sun 05:58:58 PM 48.1125 -120.3260 95° East 351 404 22,100  Descending Seattle Center
Sun 05:59:58 PM 48.1047 -120.1800 98° East 351 404 22,200 100 Climbing Seattle Center
Sun 06:00:58 PM 48.0906 -120.0340 96° East 351 404 22,300 -50 Climbing Seattle Center
Sun 06:01:58 PM 48.0803 -119.8880 95° East 351 404 22,100 -100 Descending Seattle Center
Sun 06:02:58 PM 48.0722 -119.7450 92° East 351 404 22,100  Level Seattle Center
Sun 06:03:58 PM 48.0678 -119.5960 90° East 351 404 22,100  Level Seattle Center
Sun 06:04:58 PM 48.0675 -119.4510 90° East 351 404 22,100 -50 Level Seattle Center
Sun 06:05:58 PM 48.0669 -119.3050 92° East 346 398 22,000 -100 Descending Seattle Center
Sun 06:06:58 PM 48.0642 -119.1590 94° East 346 398 21,900 -50 Descending Seattle Center
Sun 06:07:59 PM 48.0572 -119.0170 94° East 346 398 21,900 -50 Level Seattle Center
Sun 06:08:58 PM 48.0497 -118.8680 94° East 351 404 21,800 -50 Descending Seattle Center
Sun 06:09:58 PM 48.0425 -118.7220 96° East 351 404 21,800  Level Seattle Center
Sun 06:10:58 PM 48.0328 -118.5770 101° East 351 404 21,800 50 Level Seattle Center
Sun 06:11:58 PM 48.0147 -118.4440 101° East 346 398 21,900 100 Climbing Seattle Center
Sun 06:12:58 PM 47.9964 -118.3080 100° East 334 384 22,000 100 Climbing Seattle Center
Sun 06:13:58 PM 47.9800 -118.1750 99° East 334 384 22,100 50 Climbing Seattle Center
Sun 06:14:58 PM 47.9656 -118.0390 99° East 334 384 22,100  Level Seattle Center
Sun 06:15:59 PM 47.9511 -117.9070 99° East 328 377 22,100 -50 Level Seattle Center
Sun 06:16:59 PM 47.9364 -117.7740 98° East 328 377 22,000 -101 Descending Seattle Center
Sun 06:17:58 PM 47.9239 -117.6420 98° East 328 377 21,900  Descending Seattle Center
Sun 06:18:59 PM 47.9108 -117.5060 88° East 328 377 22,000 50 Climbing Seattle Center
Sun 06:19:59 PM 47.9144 -117.3790 North 328 377 22,000  Level Seattle Center
Sun 06:20:58 PM 47.9869 -117.3630 283° West 233 268 22,000  Level Seattle Center
Sun 06:21:58 PM 48.0039 -117.4710 273° West 122 140 22,000 -50 Level Seattle Center
Sun 06:22:58 PM 48.0078 -117.5790 277° West 188 216 21,900 -50 Descending Seattle Center
Sun 06:23:58 PM 48.0161 -117.6810 277° West 226 260 21,900  Level Seattle Center
Sun 06:24:58 PM 48.0239 -117.7830 282° West 249 287 21,900 50 Level Seattle Center
Sun 06:25:58 PM 48.0381 -117.8850 275° West 255 293 22,000 100 Climbing Seattle Center
Sun 06:26:58 PM 48.0439 -117.9900 274° West 255 293 22,100  Climbing Seattle Center
Sun 06:27:58 PM 48.0497 -118.1020 274° West 262 302 22,000  Descending Seattle Center
Sun 06:28:59 PM 48.0558 -118.2320 274° West 290 334 22,100 100 Climbing Seattle Center
Sun 06:29:58 PM 48.0614 -118.3590 275° West 309 356 22,200 50 Climbing Seattle Center
Sun 06:30:58 PM 48.0692 -118.4860 275° West 309 356 22,200 -50 Level Seattle Center
Sun 06:31:58 PM 48.0767 -118.6130 277° West 309 356 22,100 -50 Descending Seattle Center
Sun 06:32:58 PM 48.0861 -118.7370 275° West 309 356 22,100  Level Seattle Center
Sun 06:33:58 PM 48.0936 -118.8640 278° West 309 356 22,100 -50 Level Seattle Center
Sun 06:34:58 PM 48.1047 -118.9880 275° West 309 356 22,000 -100 Descending Seattle Center
Sun 06:35:58 PM 48.1117 -119.1120 272° West 309 356 21,900  Descending Seattle Center
Sun 06:36:59 PM 48.1144 -119.2390 270° West 309 356 22,000 100 Climbing Seattle Center
Sun 06:37:58 PM 48.1150 -119.3630 268° West 309 356 22,100 151 Climbing Seattle Center
Sun 06:38:58 PM 48.1114 -119.4940 275° West 309 356 22,300 -50 Climbing Seattle Center
Sun 06:39:58 PM 48.1178 -119.6150 276° West 309 356 22,000 -149 Descending Seattle Center
Sun 06:40:59 PM 48.1261 -119.7330 276° West 303 349 22,000  Level Seattle Center
Sun 06:41:58 PM 48.1344 -119.8540 275° West 298 343 22,000 252 Level Seattle Center
Sun 06:42:58 PM 48.1406 -119.9720 276° West 298 343 22,500 1,000 Climbing Seattle Center
Sun 06:43:58 PM 48.1486 -120.0960 276° West 292 336 24,000 2,000 Climbing Seattle Center
Sun 06:44:58 PM 48.1567 -120.2170 275° West 292 336 26,500 2,350 Climbing Seattle Center
Sun 06:45:58 PM 48.1644 -120.3390 273° West 292 336 28,700 1,750 Climbing Seattle Center
Sun 06:46:58 PM 48.1681 -120.4600 273° West 292 336 30,000 700 Climbing Seattle Center
Sun 06:47:58 PM 48.1714 -120.5750 275° West 292 336 30,100 -150 Climbing Seattle Center
Sun 06:48:58 PM 48.1789 -120.6970 274° West 292 336 29,700 -50 Descending Seattle Center
Sun 06:49:58 PM 48.1842 -120.8150 276° West 292 336 30,000 200 Climbing Seattle Center
Sun 06:50:58 PM 48.1933 -120.9460 279° West 292 336 30,100 50 Climbing Seattle Center
Sun 06:51:58 PM 48.2047 -121.0610 273° West 292 336 30,100 -50 Level Seattle Center
Sun 06:52:59 PM 48.2094 -121.1860 275° West 292 336 30,000 -99 Descending Seattle Center
Sun 06:53:59 PM 48.2164 -121.3040 275° West 292 336 29,900 250 Descending Seattle Center
Sun 06:54:59 PM 48.2231 -121.4250 275° West 292 336 30,500 454 Climbing Seattle Center
Sun 06:55:58 PM 48.2297 -121.5440 281° West 292 336 30,800 101 Climbing Seattle Center
Sun 06:56:58 PM 48.2444 -121.6590 347° North 292 336 30,700  Descending Seattle Center
Sun 06:57:58 PM 48.3294 -121.6880 53° Northeast 249 287 30,800 -198 Climbing Seattle Center
Sun 06:58:59 PM 48.3936 -121.5590 96° East 240 276 30,300 -400 Descending Seattle Center
Sun 06:59:58 PM 48.3817 -121.3840 100° East 299 344 30,000 -151 Descending Seattle Center
Sun 07:00:58 PM 48.3628 -121.2240 99° East 362 417 30,000  Level Seattle Center
Sun 07:01:58 PM 48.3439 -121.0550 101° East 388 447 30,000  Level Seattle Center
Sun 07:02:58 PM 48.3228 -120.8860 99° East 399 459 30,000 -50 Level Seattle Center
Sun 07:03:58 PM 48.3036 -120.7140 102° East 411 473 29,900 -50 Descending Seattle Center
Sun 07:04:58 PM 48.2797 -120.5460 104° East 411 473 29,900  Level Seattle Center
Sun 07:05:58 PM 48.2517 -120.3800 102° East 411 473 29,900  Level Seattle Center
Sun 07:06:58 PM 48.2272 -120.2090 105° East 411 473 29,900 50 Level Seattle Center
Sun 07:07:59 PM 48.1986 -120.0440 107° East 411 473 30,000 100 Climbing Seattle Center
Sun 07:08:58 PM 48.1656 -119.8790 106° East 411 473 30,100 50 Climbing Seattle Center
Sun 07:09:59 PM 48.1344 -119.7140 100° East 411 473 30,100 -50 Level Seattle Center
Sun 07:10:59 PM 48.1133 -119.5410 98° East 416 479 30,000  Descending Seattle Center
Sun 07:11:58 PM 48.0964 -119.3540 99° East 433 498 30,100  Climbing Seattle Center
Sun 07:12:58 PM 48.0767 -119.1680 99° East 447 514 30,000 -50 Descending Seattle Center
Sun 07:13:59 PM 48.0569 -118.9860 100° East 452 520 30,000  Level Seattle Center
Sun 07:14:59 PM 48.0347 -118.8030 99° East 446 513 30,000  Level Seattle Center
Sun 07:15:58 PM 48.0144 -118.6170 100° East 446 513 30,000 -50 Level Seattle Center
Sun 07:16:58 PM 47.9936 -118.4380 99° East 446 513 29,900 -100 Descending Seattle Center
Sun 07:17:58 PM 47.9750 -118.2560 101° East 446 513 29,800 50 Descending Seattle Center
Sun 07:18:58 PM 47.9517 -118.0740 99° East 446 513 30,000 100 Climbing Seattle Center
Sun 07:19:58 PM 47.9322 -117.8950 94° East 446 513 30,000  Level Seattle Center
Sun 07:20:58 PM 47.9231 -117.7160 42° Northeast 446 513 30,000  Level Seattle Center
Sun 07:21:58 PM 48.0003 -117.6110 318° Northwest 376 433 30,000  Level Seattle Center
Sun 07:22:59 PM 48.0619 -117.6950 270° West 206 237 30,000 50 Level Seattle Center
Sun 07:23:58 PM 48.0622 -117.8280 266° West 175 201 30,100  Climbing Seattle Center
Sun 07:24:58 PM 48.0561 -117.9620 266° West 271 312 30,000  Descending Seattle Center
Sun 07:25:58 PM 48.0497 -118.0920 263° West 296 341 30,100 100 Climbing Seattle Center
Sun 07:26:58 PM 48.0389 -118.2260 271° West 314 361 30,200 -50 Climbing Seattle Center
Sun 07:27:58 PM 48.0406 -118.3530 278° West 327 376 30,000 -50 Descending Seattle Center
Sun 07:28:58 PM 48.0525 -118.4860 279° West 322 371 30,100 100 Climbing Seattle Center
Sun 07:29:58 PM 48.0664 -118.6160 278° West 322 371 30,200 100 Climbing Seattle Center
Sun 07:30:58 PM 48.0781 -118.7430 273° West 322 371 30,300  Climbing Seattle Center
Sun 07:31:58 PM 48.0831 -118.8730 272° West 322 371 30,200 -150 Descending Seattle Center
Sun 07:32:58 PM 48.0861 -119.0040 272° West 317 365 30,000 -200 Descending Seattle Center
Sun 07:33:58 PM 48.0889 -119.1280 284° West 306 352 29,800 50 Descending Seattle Center
Sun 07:34:58 PM 48.1083 -119.2490 293° West 306 352 30,100 200 Climbing Seattle Center
Sun 07:35:58 PM 48.1419 -119.3660 283° West 306 352 30,200 -50 Climbing Seattle Center
Sun 07:36:58 PM 48.1611 -119.4880 273° West 306 352 30,000 -350 Descending Seattle Center
Sun 07:37:58 PM 48.1656 -119.6150 252° West 301 346 29,500 -850 Descending Seattle Center
Sun 07:38:58 PM 48.1386 -119.7390 252° West 301 346 28,300 -1,100 Descending Seattle Center
Sun 07:39:58 PM 48.1136 -119.8570 255° West 301 346 27,300 -1,200 Descending Seattle Center
Sun 07:40:58 PM 48.0928 -119.9750 253° West 301 346 25,900 -1,250 Descending Seattle Center
Sun 07:41:58 PM 48.0675 -120.0960 256° West 301 346 24,800 -950 Descending Seattle Center
Sun 07:42:58 PM 48.0483 -120.2140 252° West 301 346 24,000 -400 Descending Seattle Center
Sun 07:43:58 PM 48.0231 -120.3310 255° West 301 346 24,000  Level Seattle Center
Sun 07:44:58 PM 48.0017 -120.4490 253° West 301 346 24,000 -350 Level Seattle Center
Sun 07:45:58 PM 47.9781 -120.5660 253° West 301 346 23,300 -1,150 Descending Seattle Center
Sun 07:46:58 PM 47.9544 -120.6830 253° West 301 346 21,700 -1,650 Descending Seattle Center
Sun 07:47:58 PM 47.9306 -120.8010 257° West 301 346 20,000 -1,700 Descending Seattle Center
Sun 07:48:58 PM 47.9106 -120.9330 253° West 301 346 18,300 -1,600 Descending Seattle Center
Sun 07:49:58 PM 47.8886 -121.0410 253° West 291 335 16,800 -1,550 Descending Seattle Center
Sun 07:50:58 PM 47.8689 -121.1360 264° West 281 323 15,200 -1,700 Descending Seattle Center
Sun 07:51:58 PM 47.8614 -121.2470 274° West 276 318 13,400 -1,850 Descending Seattle Center
Sun 07:52:58 PM 47.8661 -121.3530 271° West 271 312 11,500 -1,582 Descending Seattle Center
Sun 07:53:29 PM 47.8672 -121.4240 282° West 265 305 11,000 -500 Descending Seattle Center
Sun 07:53:58 PM 47.8731 -121.4640 273° West 271 312 11,000  Level Seattle Center
Sun 07:54:41 PM 47.8758 -121.5510 288° West 261 300 11,000  Level Seattle Center
Sun 07:54:58 PM 47.8797 -121.5690 273° West 271 312 11,000  Level Seattle Center
Sun 07:55:36 PM 47.8828 -121.6500 282° West 259 298 11,000 -100 Level Seattle Center
Sun 07:55:58 PM 47.8864 -121.6750 239° Southwest 271 312 10,900 -1,200 Descending Seattle Center
Sun 07:56:36 PM 47.8583 -121.7450 245° Southwest 257 296 9,800 -1,400 Descending Seattle Center
Sun 07:56:58 PM 47.8517 -121.7660 236° Southwest 258 297 9,500 -1,180 Descending Seattle Center
Sun 07:57:37 PM 47.8214 -121.8330 239° Southwest 252 290 8,600 -1,300 Descending Seattle Center
Sun 07:57:58 PM 47.8128 -121.8540 235° Southwest 258 297 8,200 -1,808 Descending Seattle Center
Sun 07:58:50 PM 47.7761 -121.9330 242° Southwest 239 275 6,400 -2,198 Descending Seattle Center
Sun 07:59:39 PM 47.7519 -122.0000 268° West 227 261 4,500 -2,029 Descending Seattle Center
Sun 07:59:58 PM 47.7514 -122.0190 259° West 241 277 4,100 -1,500 Descending Seattle Center
Sun 08:00:39 PM 47.7417 -122.0920 268° West 208 239 3,000 -1,100 Descending Seattle Center
Sun 08:00:58 PM 47.7414 -122.1070 256° West 228 262 3,000  Level Seattle Center
Sun 08:01:34 PM 47.7322 -122.1600 268° West 200 230 3,000  Level Seattle Center
Sun 08:01:58 PM 47.7314 -122.1940 254° West 214 246 3,000  Level Seattle Center
Sun 08:02:35 PM 47.7222 -122.2430 268° West 190 219 3,000 -100 Level Seattle Center
Sun 08:02:58 PM 47.7217 -122.2670 259° West 203 234 2,900 -590 Descending Seattle Center
Sun 08:03:36 PM 47.7142 -122.3220 262° West 190 219 2,400 -700 Descending Seattle Center
Sun 08:03:58 PM 47.7117 -122.3470 254° West 198 228 2,200 -200 Descending Seattle Center
Sun 08:04:36 PM 47.7022 -122.3960 238° Southwest 190 219 2,200  Level Seattle Center
Sun 08:04:58 PM 47.6933 -122.4170 172° South 198 228 2,200  Level Seattle Center
Sun 08:05:43 PM 47.6561 -122.4090 180° South 172 198 2,200  Level Seattle Center
Sun 08:05:58 PM 47.6519 -122.4090 152° Southeast 172 198 2,200 -218 Level Seattle Center
Sun 08:06:38 PM 47.6233 -122.3860 139° Southeast 148 170 2,000 -500 Descending Seattle Center
Sun 08:06:58 PM 47.6133 -122.3730 153° Southeast 120 138 1,700 -818 Descending Seattle Center
Sun 08:07:44 PM 47.5867 -122.3530 150° Southeast 144 166 1,100 -841 Descending Seattle Center
Sun 08:08:45 PM 47.5497 -122.3210 149° Southeast 151 174 200 10,254 Descending Seattle Center
Sun 08:09:58 PM 47.5089 -122.2850 148° Southeast 147 169 24,000 10,737 Climbing Seattle Center
Sun 08:10:58 PM 47.4742 -122.2530 149° Southeast 147 169 24,000  Level Seattle Center
Sun 08:11:59 PM 47.4375 -122.2200 149° Southeast 147 169 24,000  Level Seattle Center

Login

Don't have an account? Register now (free) for customized features, flight alerts, and more!